Time;durP1;ratioP1;P1;durP2;ratioP2;P2;SDS_P1;SDS_P2;PMS_P1;PMS_P2;Temp;Humidity;BMP_temperature;BMP_pressure;BME280_temperature;BME280_humidity;BME280_pressure;Samples;Min_cycle;Max_cycle;Signal;HPM_P1;HPM_P2
2022/09/03 00:01:57;;;;;;;2.47;1.55;;;22.00;54.00;;;;;;5007914;28;20045;-94
2022/09/03 00:04:39;;;;;;;4.47;1.90;;;21.90;54.00;;;;;;5018532;28;20030;-92
2022/09/03 00:07:19;;;;;;;3.83;1.95;;;21.90;53.90;;;;;;5018887;28;20041;-93
2022/09/03 00:09:55;;;;;;;6.07;1.95;;;21.90;53.80;;;;;;5001188;28;20037;-96
2022/09/03 00:12:25;;;;;;;3.53;1.95;;;21.80;54.00;;;;;;5021323;28;20030;-93
2022/09/03 00:14:57;;;;;;;3.10;1.75;;;21.80;53.90;;;;;;5003265;28;20025;-92
2022/09/03 00:17:28;;;;;;;2.78;1.60;;;21.80;54.20;;;;;;5019075;28;20109;-93
2022/09/03 00:20:27;;;;;;;4.18;1.88;;;21.70;54.30;;;;;;5004289;28;20030;-90
2022/09/03 00:22:55;;;;;;;4.95;2.08;;;21.70;54.30;;;;;;4968745;28;20133;-94
2022/09/03 00:25:42;;;;;;;4.68;1.95;;;21.70;54.30;;;;;;5023103;28;20026;-92
2022/09/03 00:28:17;;;;;;;4.18;2.03;;;21.70;54.50;;;;;;5010491;28;20029;-94
2022/09/03 00:30:53;;;;;;;3.35;1.40;;;21.60;54.50;;;;;;5027470;28;20050;-94
2022/09/03 00:33:26;;;;;;;4.10;1.80;;;21.60;54.60;;;;;;5020020;28;20044;-94
2022/09/03 00:36:01;;;;;;;2.60;1.38;;;21.60;54.80;;;;;;5037259;28;20018;-93
2022/09/03 00:38:29;;;;;;;3.65;1.52;;;21.50;55.30;;;;;;5020200;28;20053;-93
2022/09/03 00:41:00;;;;;;;4.78;1.73;;;21.50;55.20;;;;;;5036355;28;20022;-95
2022/09/03 00:43:47;;;;;;;3.83;1.70;;;21.50;55.30;;;;;;5037504;28;20029;-88
2022/09/03 00:46:30;;;;;;;6.55;1.63;;;21.50;55.40;;;;;;5037171;28;20038;-94
2022/09/03 00:49:19;;;;;;;3.78;1.60;;;21.40;55.60;;;;;;5038401;28;20022;-94
2022/09/03 00:52:18;;;;;;;5.45;1.70;;;21.40;55.70;;;;;;4995936;28;20030;-93
2022/09/03 00:55:25;;;;;;;3.13;1.38;;;21.40;55.60;;;;;;5018387;28;20030;-95
2022/09/03 00:58:19;;;;;;;1.73;1.20;;;21.30;55.40;;;;;;4998792;28;20030;-94
2022/09/03 01:00:45;;;;;;;2.35;1.30;;;21.30;55.50;;;;;;5030149;28;20017;-89
2022/09/03 01:03:22;;;;;;;5.35;1.65;;;21.20;55.40;;;;;;5019059;28;20006;-94
2022/09/03 01:05:55;;;;;;;3.22;1.20;;;21.20;55.70;;;;;;5021061;28;20033;-96
2022/09/03 01:08:58;;;;;;;3.45;1.67;;;21.20;55.90;;;;;;5003126;28;20026;-95
2022/09/03 01:11:46;;;;;;;3.75;1.27;;;21.10;56.00;;;;;;5005184;28;20030;-93
2022/09/03 01:14:27;;;;;;;2.33;1.33;;;21.10;56.00;;;;;;5003441;28;20069;-93
2022/09/03 01:17:17;;;;;;;5.45;1.42;;;21.00;56.40;;;;;;5019905;28;20026;-94
2022/09/03 01:20:28;;;;;;;3.05;1.27;;;21.00;56.00;;;;;;5020760;28;20542;-92
2022/09/03 01:23:13;;;;;;;2.20;1.35;;;21.00;56.40;;;;;;5015297;28;20044;-95
2022/09/03 01:25:50;;;;;;;3.13;1.23;;;21.00;56.40;;;;;;5020351;28;20033;-95
2022/09/03 01:28:20;;;;;;;2.00;1.13;;;20.90;56.30;;;;;;5020939;28;20033;-94
2022/09/03 01:31:02;;;;;;;3.55;1.30;;;20.90;56.40;;;;;;5019060;28;20465;-96
2022/09/03 01:33:39;;;;;;;3.30;1.45;;;20.90;56.60;;;;;;5020901;28;20029;-94
2022/09/03 01:36:35;;;;;;;4.97;1.15;;;20.80;56.60;;;;;;5019725;28;20032;-94
2022/09/03 01:39:06;;;;;;;2.00;1.30;;;20.80;57.00;;;;;;5026619;28;20037;-93
2022/09/03 01:45:08;;;;;;;2.95;1.40;;;20.70;57.50;;;;;;5034666;28;19932;-93
2022/09/03 01:48:04;;;;;;;2.08;1.25;;;20.70;57.20;;;;;;5009537;28;20509;-94
2022/09/03 01:50:36;;;;;;;2.17;1.25;;;20.60;57.40;;;;;;5019181;28;20030;-94
2022/09/03 01:53:24;;;;;;;2.17;1.27;;;20.60;57.20;;;;;;5022111;28;20022;-94
2022/09/03 01:56:25;;;;;;;2.38;1.48;;;20.60;57.00;;;;;;5018573;28;20068;-95
2022/09/03 01:59:26;;;;;;;2.38;1.30;;;20.50;57.30;;;;;;5000026;28;20029;-95
2022/09/03 02:02:01;;;;;;;3.35;1.55;;;20.50;57.30;;;;;;5022000;28;20026;-93
2022/09/03 02:04:27;;;;;;;3.67;1.55;;;20.50;57.30;;;;;;5002915;28;20060;-94
2022/09/03 02:06:56;;;;;;;2.35;1.27;;;20.50;57.20;;;;;;5003181;28;20022;-94
2022/09/03 02:09:23;;;;;;;5.90;1.83;;;20.40;57.20;;;;;;5006221;28;20030;-94
2022/09/03 02:11:58;;;;;;;3.33;1.25;;;20.40;57.30;;;;;;5019235;28;20470;-94
2022/09/03 02:14:25;;;;;;;3.03;1.30;;;20.40;57.40;;;;;;5017569;28;20113;-92
2022/09/03 02:16:51;;;;;;;6.07;1.33;;;20.40;57.60;;;;;;5031947;28;20034;-91
2022/09/03 02:19:17;;;;;;;3.28;1.25;;;20.30;57.70;;;;;;5031971;28;20033;-93
2022/09/03 02:21:51;;;;;;;3.33;1.58;;;20.30;57.70;;;;;;5030216;28;20026;-93
2022/09/03 02:24:17;;;;;;;5.90;1.65;;;20.30;57.60;;;;;;5010586;28;20030;-94
2022/09/03 02:26:44;;;;;;;4.80;1.48;;;20.20;57.50;;;;;;5012769;28;20057;-94
2022/09/03 02:29:10;;;;;;;4.15;1.65;;;20.20;57.40;;;;;;5012954;28;20034;-94
2022/09/03 02:31:36;;;;;;;2.63;1.27;;;20.20;57.40;;;;;;5012188;28;20482;-94
2022/09/03 02:34:02;;;;;;;3.73;1.70;;;20.10;57.70;;;;;;5008249;28;20031;-93
2022/09/03 02:36:41;;;;;;;2.75;1.30;;;20.10;58.00;;;;;;4990893;28;20031;-94
2022/09/03 02:39:06;;;;;;;2.60;1.40;;;20.10;57.90;;;;;;4998534;28;20034;-94
2022/09/03 02:41:33;;;;;;;2.45;1.38;;;20.10;57.90;;;;;;5000289;28;20026;-94
2022/09/03 02:44:25;;;;;;;2.67;1.35;;;20.10;58.10;;;;;;4980287;28;20118;-93
2022/09/03 02:47:01;;;;;;;3.10;1.20;;;20.00;58.00;;;;;;5001722;28;20031;-90
2022/09/03 02:49:28;;;;;;;2.15;1.23;;;20.00;57.90;;;;;;5009732;28;20113;-93
2022/09/03 02:52:08;;;;;;;3.47;1.35;;;19.90;57.80;;;;;;5007186;28;20200;-94
2022/09/03 02:54:38;;;;;;;3.20;1.70;;;19.90;58.20;;;;;;5001401;28;20033;-94
2022/09/03 02:57:08;;;;;;;2.17;1.47;;;19.90;58.20;;;;;;5000401;28;20033;-94
2022/09/03 02:59:34;;;;;;;3.70;1.45;;;19.90;58.30;;;;;;4998011;28;20490;-94
2022/09/03 03:02:04;;;;;;;2.97;1.50;;;19.80;58.40;;;;;;4978787;28;20018;-94
2022/09/03 03:04:31;;;;;;;4.47;1.40;;;19.80;58.40;;;;;;5003007;28;20034;-94
2022/09/03 03:06:57;;;;;;;1.67;1.10;;;19.80;58.50;;;;;;5005930;28;20089;-94
2022/09/03 03:09:22;;;;;;;4.50;1.40;;;19.80;58.40;;;;;;4988369;28;20014;-92
2022/09/03 03:11:50;;;;;;;2.47;1.50;;;19.80;58.60;;;;;;5015566;28;20023;-91
2022/09/03 03:14:17;;;;;;;3.22;1.38;;;19.70;58.60;;;;;;5001602;28;20022;-94
2022/09/03 03:16:43;;;;;;;2.20;1.45;;;19.70;58.50;;;;;;4996845;28;20042;-93
2022/09/03 03:19:09;;;;;;;3.03;1.20;;;19.70;58.60;;;;;;5016404;28;20014;-92
2022/09/03 03:21:35;;;;;;;2.67;1.27;;;19.70;58.60;;;;;;5017227;28;20034;-93
2022/09/03 03:24:02;;;;;;;5.25;1.20;;;19.60;58.50;;;;;;5013446;28;20063;-94
2022/09/03 03:26:28;;;;;;;2.47;1.23;;;19.60;58.70;;;;;;5007841;28;20034;-94
2022/09/03 03:28:59;;;;;;;1.67;1.20;;;19.60;59.00;;;;;;5015820;28;20046;-93
2022/09/03 03:31:33;;;;;;;2.50;1.38;;;19.60;59.00;;;;;;5008810;28;20030;-95
2022/09/03 03:34:01;;;;;;;2.53;1.30;;;19.60;59.10;;;;;;5026439;28;20026;-91
2022/09/03 03:36:30;;;;;;;2.85;1.20;;;19.60;59.40;;;;;;5012809;28;20046;-93
2022/09/03 03:39:11;;;;;;;2.70;1.40;;;19.50;59.40;;;;;;5008859;28;20023;-92
2022/09/03 03:41:37;;;;;;;2.50;1.40;;;19.50;59.20;;;;;;4997534;28;20066;-94
2022/09/03 03:44:07;;;;;;;3.33;1.17;;;19.50;59.10;;;;;;5004931;28;20027;-94
2022/09/03 03:46:36;;;;;;;6.93;1.30;;;19.40;59.20;;;;;;5006071;28;20037;-95
2022/09/03 03:49:05;;;;;;;3.25;1.40;;;19.40;59.40;;;;;;4998423;28;20026;-90
2022/09/03 03:51:31;;;;;;;2.85;1.17;;;19.30;59.50;;;;;;4982966;28;20042;-95
2022/09/03 03:53:58;;;;;;;7.35;1.92;;;19.30;59.50;;;;;;4998471;28;20069;-96
2022/09/03 03:56:25;;;;;;;2.90;1.40;;;19.30;59.50;;;;;;4985048;28;20049;-95
2022/09/03 03:58:52;;;;;;;3.25;1.60;;;19.30;59.40;;;;;;4998398;28;20386;-95
2022/09/03 04:01:23;;;;;;;2.45;1.38;;;19.30;59.30;;;;;;4982645;28;20030;-95
2022/09/03 04:03:49;;;;;;;;;;;19.20;59.50;;;;;;4994571;28;20022;-96
2022/09/03 04:06:17;;;;;;;5.72;1.60;;;19.20;59.90;;;;;;5006168;28;19965;-95
2022/09/03 04:08:44;;;;;;;2.60;1.20;;;19.10;59.50;;;;;;5007409;28;20022;-94
2022/09/03 04:11:13;;;;;;;2.95;1.20;;;19.10;59.80;;;;;;5014091;28;20018;-91
2022/09/03 04:13:41;;;;;;;1.92;1.27;;;19.10;59.80;;;;;;5018626;28;20086;-94
2022/09/03 04:16:10;;;;;;;2.17;1.02;;;19.10;60.10;;;;;;5010139;28;20018;-91
2022/09/03 04:18:37;;;;;;;1.92;1.23;;;19.10;60.20;;;;;;5020810;28;20026;-91
2022/09/03 04:21:05;;;;;;;2.15;1.10;;;19.00;60.10;;;;;;5019657;28;20030;-88
2022/09/03 04:23:33;;;;;;;2.40;1.27;;;19.00;60.20;;;;;;5026972;28;20010;-89
2022/09/03 04:25:59;;;;;;;4.18;1.90;;;19.00;60.30;;;;;;5006286;28;20007;-93
2022/09/03 04:28:25;;;;;;;5.38;1.38;;;19.00;60.30;;;;;;5036805;28;20017;-93
2022/09/03 04:30:51;;;;;;;2.97;1.42;;;19.00;60.40;;;;;;5020076;28;20007;-94
2022/09/03 04:33:17;;;;;;;3.03;1.20;;;18.90;60.60;;;;;;5020527;28;20026;-93
2022/09/03 04:35:43;;;;;;;3.20;1.30;;;18.90;60.60;;;;;;5023533;28;20098;-94
2022/09/03 04:38:09;;;;;;;2.97;1.30;;;18.90;60.80;;;;;;5035498;28;20018;-88
2022/09/03 04:40:36;;;;;;;3.45;1.20;;;18.90;60.90;;;;;;5036885;28;20006;-94
2022/09/03 04:43:02;;;;;;;3.05;1.50;;;18.80;60.80;;;;;;5036745;28;20038;-93
2022/09/03 04:45:28;;;;;;;2.83;1.17;;;18.80;60.80;;;;;;5037115;28;20038;-92
2022/09/03 04:47:59;;;;;;;5.18;1.45;;;18.90;60.90;;;;;;5020299;28;20038;-93
2022/09/03 04:50:26;;;;;;;3.38;1.42;;;18.80;60.80;;;;;;5020962;28;20098;-93
2022/09/03 04:53:03;;;;;;;2.05;1.13;;;18.80;60.80;;;;;;5026628;28;20015;-93
2022/09/03 04:55:36;;;;;;;4.68;1.42;;;18.70;60.90;;;;;;5018532;28;20022;-93
2022/09/03 04:58:03;;;;;;;1.98;1.25;;;18.70;61.00;;;;;;5020754;28;20019;-94
2022/09/03 05:00:28;;;;;;;8.23;1.15;;;18.70;61.20;;;;;;5004065;28;20050;-91
2022/09/03 05:02:54;;;;;;;3.72;1.35;;;18.70;61.00;;;;;;5036540;28;20013;-93
2022/09/03 05:05:20;;;;;;;1.92;1.00;;;18.60;60.90;;;;;;5018925;28;20026;-93
2022/09/03 05:07:46;;;;;;;2.03;1.25;;;18.60;61.10;;;;;;5035639;28;20013;-94
2022/09/03 05:10:19;;;;;;;2.28;1.10;;;18.60;61.30;;;;;;5008053;28;20034;-94
2022/09/03 05:12:56;;;;;;;2.45;1.30;;;18.60;61.20;;;;;;5019072;28;20052;-94
2022/09/03 05:15:22;;;;;;;2.83;1.38;;;18.50;61.10;;;;;;5032067;28;20053;-93
2022/09/03 05:17:48;;;;;;;1.90;1.20;;;18.50;61.80;;;;;;5003723;28;20002;-94
2022/09/03 05:20:14;;;;;;;2.97;1.10;;;18.50;61.50;;;;;;5023870;28;20027;-88
2022/09/03 05:22:40;;;;;;;2.35;1.30;;;18.50;61.60;;;;;;4995471;28;20141;-94
2022/09/03 05:25:06;;;;;;;4.07;1.33;;;18.50;61.70;;;;;;5012188;28;20113;-94
2022/09/03 05:27:32;;;;;;;3.45;1.15;;;18.50;61.90;;;;;;4983191;28;20030;-96
2022/09/03 05:29:57;;;;;;;6.45;1.48;;;18.40;61.90;;;;;;5001740;28;20374;-94
2022/09/03 05:32:26;;;;;;;3.30;1.10;;;18.40;62.10;;;;;;5008847;28;20026;-96
2022/09/03 05:34:52;;;;;;;3.22;1.40;;;18.40;62.20;;;;;;5026739;28;20033;-96
2022/09/03 05:37:18;;;;;;;1.67;1.00;;;18.40;62.40;;;;;;5025759;28;20042;-94
2022/09/03 05:39:44;;;;;;;1.98;1.10;;;18.40;62.60;;;;;;5007125;28;20081;-95
2022/09/03 05:42:11;;;;;;;3.13;1.50;;;18.40;62.40;;;;;;5015847;28;20022;-96
2022/09/03 05:44:37;;;;;;;3.75;1.30;;;18.40;62.60;;;;;;5033175;23;20146;-83
2022/09/03 05:47:03;;;;;;;2.55;1.20;;;18.30;62.50;;;;;;4995454;28;20494;-83
2022/09/03 05:49:29;;;;;;;1.77;1.05;;;18.30;62.40;;;;;;4995290;28;20050;-84
2022/09/03 05:55:39;;;;;;;2.10;1.20;;;18.30;62.60;;;;;;4995382;28;20041;-84
2022/09/03 05:58:04;;;;;;;2.72;1.15;;;18.30;62.90;;;;;;4982334;28;20018;-84
2022/09/03 06:00:30;;;;;;;2.95;1.00;;;18.30;62.80;;;;;;4995191;28;20030;-83
2022/09/03 06:02:56;;;;;;;1.98;1.00;;;18.30;62.80;;;;;;4991589;28;20492;-83
2022/09/03 06:05:22;;;;;;;1.65;0.82;;;18.30;62.90;;;;;;5007945;28;20392;-84
2022/09/03 06:07:48;;;;;;;1.80;0.70;;;18.30;62.80;;;;;;4991615;28;20035;-84
2022/09/03 06:10:16;;;;;;;1.35;1.00;;;18.30;62.80;;;;;;5008020;28;20035;-82
2022/09/03 06:12:48;;;;;;;1.92;0.95;;;18.30;62.90;;;;;;5009749;28;20046;-83
2022/09/03 06:15:15;;;;;;;2.80;1.20;;;18.30;62.80;;;;;;4986700;28;20488;-84
2022/09/03 06:17:41;;;;;;;1.58;0.90;;;18.30;62.90;;;;;;4997209;28;20054;-84
2022/09/03 06:20:08;;;;;;;1.65;0.82;;;18.30;62.80;;;;;;5010787;28;20036;-84
2022/09/03 06:22:34;;;;;;;4.10;1.00;;;18.30;62.90;;;;;;4999012;28;20018;-84
2022/09/03 06:25:00;;;;;;;1.98;1.00;;;18.30;62.80;;;;;;4994483;28;20124;-84
2022/09/03 06:27:28;;;;;;;2.03;0.80;;;18.30;62.80;;;;;;4995808;28;20026;-91
2022/09/03 06:29:53;;;;;;;2.63;1.00;;;18.30;62.80;;;;;;5024947;28;20041;-88
2022/09/03 06:32:23;;;;;;;4.85;1.25;;;18.30;62.70;;;;;;5010302;28;20061;-91
2022/09/03 06:34:54;;;;;;;1.33;0.90;;;18.30;62.80;;;;;;4985828;28;20039;-90
2022/09/03 06:37:20;;;;;;;3.55;1.10;;;18.30;63.00;;;;;;4978614;28;20037;-91
2022/09/03 06:39:58;;;;;;;2.90;1.17;;;18.30;62.90;;;;;;5025955;28;20030;-90
2022/09/03 06:42:24;;;;;;;2.25;1.13;;;18.30;63.00;;;;;;5030351;28;20019;-92
2022/09/03 06:44:50;;;;;;;2.40;1.10;;;18.40;63.10;;;;;;4981026;28;20554;-86
2022/09/03 06:47:15;;;;;;;4.75;0.95;;;18.40;63.10;;;;;;4976015;28;20040;-88
2022/09/03 06:49:41;;;;;;;1.67;1.00;;;18.40;63.30;;;;;;4991395;28;20027;-86
2022/09/03 06:52:08;;;;;;;3.50;1.58;;;18.40;63.30;;;;;;4941391;28;20027;-90
2022/09/03 06:54:39;;;;;;;1.10;0.98;;;18.40;63.20;;;;;;4943177;28;20148;-88
2022/09/03 06:57:05;;;;;;;1.77;0.88;;;18.40;63.30;;;;;;4990704;28;20487;-88
2022/09/03 06:59:31;;;;;;;2.25;1.05;;;18.40;63.20;;;;;;4995362;28;20031;-88
2022/09/03 07:01:59;;;;;;;1.67;0.98;;;18.50;63.30;;;;;;4978914;28;20031;-88
2022/09/03 07:04:26;;;;;;;5.38;1.08;;;18.50;63.30;;;;;;4994581;28;20034;-89
2022/09/03 07:06:52;;;;;;;2.70;0.82;;;18.50;63.30;;;;;;4993794;28;20023;-85
2022/09/03 07:09:18;;;;;;;5.03;1.30;;;18.50;63.40;;;;;;4976402;28;20377;-85
2022/09/03 07:11:46;;;;;;;2.67;1.15;;;18.50;63.50;;;;;;4973145;28;20031;-87
2022/09/03 07:14:13;;;;;;;2.58;0.95;;;18.50;63.40;;;;;;4986790;28;20388;-86
2022/09/03 07:16:40;;;;;;;2.53;1.00;;;18.60;63.40;;;;;;4976829;28;20054;-86
2022/09/03 07:19:07;;;;;;;2.33;0.90;;;18.60;63.50;;;;;;4976300;28;20031;-87
2022/09/03 07:21:40;;;;;;;2.00;0.98;;;18.60;63.50;;;;;;4994845;28;20030;-87
2022/09/03 07:24:07;;;;;;;2.38;1.10;;;18.60;63.60;;;;;;4995159;28;20027;-86
2022/09/03 07:26:38;;;;;;;2.88;0.90;;;18.70;63.60;;;;;;4979584;28;20596;-87
2022/09/03 07:29:06;;;;;;;2.80;1.35;;;18.70;63.70;;;;;;4991610;28;20011;-87
2022/09/03 07:31:40;;;;;;;2.25;0.90;;;18.80;63.80;;;;;;4960393;28;20400;-87
2022/09/03 07:34:11;;;;;;;3.47;1.25;;;18.80;63.80;;;;;;4975967;28;20043;-86
2022/09/03 07:36:38;;;;;;;;;;;18.80;64.10;;;;;;4987951;28;20113;-86
2022/09/03 07:39:04;;;;;;;2.10;0.93;;;18.90;64.40;;;;;;4997731;28;19912;-87
2022/09/03 07:41:32;;;;;;;1.80;0.73;;;18.90;64.20;;;;;;4961457;28;20118;-86
2022/09/03 07:44:04;;;;;;;3.10;1.13;;;19.00;65.10;;;;;;4966447;28;20066;-87
2022/09/03 07:46:32;;;;;;;1.38;0.82;;;19.00;64.60;;;;;;4980750;28;20035;-88
2022/09/03 07:49:02;;;;;;;4.18;1.00;;;19.10;64.70;;;;;;5001814;28;20050;-88
2022/09/03 07:51:32;;;;;;;3.15;1.10;;;19.10;64.50;;;;;;4983978;28;20035;-88
2022/09/03 07:54:01;;;;;;;1.77;1.08;;;19.20;64.30;;;;;;5002921;28;20026;-88
2022/09/03 07:56:29;;;;;;;2.22;0.73;;;19.30;64.00;;;;;;4987326;28;20369;-89
2022/09/03 07:58:56;;;;;;;1.67;0.90;;;19.30;64.00;;;;;;5000426;28;20456;-86
2022/09/03 08:01:27;;;;;;;1.58;0.88;;;19.40;63.90;;;;;;5001380;28;20030;-88
2022/09/03 08:03:53;;;;;;;2.38;1.17;;;19.50;64.10;;;;;;5013916;28;20019;-89
2022/09/03 08:06:21;;;;;;;5.50;2.30;;;19.50;64.10;;;;;;5000964;28;20027;-89
2022/09/03 08:09:03;;;;;;;4.05;1.60;;;19.60;63.90;;;;;;5001842;28;20380;-88
2022/09/03 08:11:36;;;;;;;2.22;1.00;;;19.70;63.80;;;;;;5000542;28;20051;-89
2022/09/03 08:14:05;;;;;;;1.42;0.90;;;19.80;63.60;;;;;;4998959;28;20031;-89
2022/09/03 08:16:34;;;;;;;3.55;1.17;;;19.90;63.50;;;;;;5001699;28;20019;-87
2022/09/03 08:19:00;;;;;;;5.38;1.00;;;20.00;63.40;;;;;;4984750;28;20051;-89
2022/09/03 08:21:26;;;;;;;3.08;1.45;;;20.10;63.10;;;;;;4970205;28;20081;-89
2022/09/03 08:24:01;;;;;;;2.20;0.98;;;20.20;63.00;;;;;;5002821;28;20023;-89
2022/09/03 08:26:29;;;;;;;2.35;0.98;;;20.20;62.30;;;;;;4999741;28;20055;-88
2022/09/03 08:28:55;;;;;;;1.50;1.02;;;20.30;62.10;;;;;;4991434;28;20077;-88
2022/09/03 08:31:23;;;;;;;1.52;0.80;;;20.40;62.10;;;;;;4968824;28;20022;-89
2022/09/03 08:33:54;;;;;;;2.80;1.10;;;20.50;62.10;;;;;;4993122;28;20023;-88
2022/09/03 08:36:21;;;;;;;;;;;20.60;61.90;;;;;;4986655;28;20106;-86
2022/09/03 08:38:53;;;;;;;2.65;1.10;;;20.70;61.90;;;;;;4999261;28;19906;-86
2022/09/03 08:41:45;;;;;;;2.15;1.10;;;20.80;61.70;;;;;;4968016;28;20054;-89
2022/09/03 08:44:38;;;;;;;3.28;0.80;;;20.90;61.20;;;;;;4975490;28;20388;-87
2022/09/03 08:47:34;;;;;;;3.50;0.90;;;21.00;61.00;;;;;;4981147;28;20030;-86
2022/09/03 08:50:23;;;;;;;2.60;1.00;;;21.10;60.90;;;;;;4999597;28;20054;-89
2022/09/03 08:52:59;;;;;;;2.85;0.90;;;21.20;60.80;;;;;;5007059;28;20061;-90
2022/09/03 08:55:49;;;;;;;1.73;1.00;;;21.30;60.40;;;;;;5007579;28;20034;-92
2022/09/03 08:58:17;;;;;;;;;;;21.40;60.50;;;;;;4993598;28;20038;-89
2022/09/03 09:01:14;;;;;;;2.40;1.17;;;21.50;60.70;;;;;;5006564;28;19898;-90
2022/09/03 09:03:45;;;;;;;1.75;0.90;;;21.50;60.30;;;;;;4993233;28;20049;-90
2022/09/03 09:06:33;;;;;;;3.28;1.35;;;21.70;60.50;;;;;;4991456;28;20027;-90
2022/09/03 09:09:19;;;;;;;2.00;0.95;;;21.80;60.30;;;;;;4988995;28;20472;-90
2022/09/03 09:12:06;;;;;;;3.15;1.48;;;21.90;60.30;;;;;;5001099;28;20031;-86
2022/09/03 09:14:47;;;;;;;1.70;0.90;;;22.00;59.80;;;;;;4997905;28;20023;-86
2022/09/03 09:17:52;;;;;;;3.53;1.00;;;22.00;59.20;;;;;;4996829;28;20082;-88
2022/09/03 09:20:41;;;;;;;3.75;1.00;;;22.20;59.00;;;;;;5001037;28;20027;-90
2022/09/03 09:23:13;;;;;;;2.47;1.17;;;22.20;58.80;;;;;;4970558;28;20027;-91
2022/09/03 09:25:50;;;;;;;3.45;0.90;;;22.30;59.10;;;;;;5001658;28;20038;-89
2022/09/03 09:28:17;;;;;;;3.97;1.33;;;22.40;59.30;;;;;;4985115;28;20057;-81
2022/09/03 09:30:46;;;;;;;1.80;0.98;;;22.50;58.70;;;;;;4976416;28;20444;-81
2022/09/03 09:33:12;;;;;;;2.83;1.00;;;22.60;58.30;;;;;;4991815;28;20027;-81
2022/09/03 09:35:41;;;;;;;2.13;1.10;;;22.70;58.30;;;;;;4976739;28;20101;-81
2022/09/03 09:38:06;;;;;;;4.10;0.90;;;22.80;58.10;;;;;;4975750;28;20511;-81
2022/09/03 09:40:37;;;;;;;2.65;1.00;;;22.90;58.10;;;;;;4959357;28;20023;-81
2022/09/03 09:43:11;;;;;;;1.40;0.90;;;23.00;57.80;;;;;;4992220;28;20023;-85
2022/09/03 09:45:39;;;;;;;1.90;0.93;;;23.10;57.80;;;;;;4990051;28;20049;-85
2022/09/03 09:48:14;;;;;;;4.80;1.10;;;23.10;57.50;;;;;;4979055;28;20023;-85
2022/09/03 09:50:40;;;;;;;4.75;1.20;;;23.20;57.10;;;;;;4994694;28;20026;-84
2022/09/03 09:53:13;;;;;;;3.70;1.25;;;23.30;56.70;;;;;;5005728;28;20018;-85
2022/09/03 09:56:19;;;;;;;4.18;1.15;;;23.40;56.20;;;;;;4990379;28;20080;-84
2022/09/03 09:58:45;;;;;;;1.30;1.05;;;23.50;56.00;;;;;;4986835;28;20117;-85
2022/09/03 10:01:20;;;;;;;2.83;0.90;;;23.60;55.90;;;;;;4978076;28;20019;-86
2022/09/03 10:03:54;;;;;;;3.38;0.93;;;23.70;56.00;;;;;;5006629;28;20384;-84
2022/09/03 10:09:16;;;;;;;2.10;1.00;;;23.80;56.30;;;;;;4993987;28;20041;-84
2022/09/03 10:11:49;;;;;;;2.75;1.10;;;23.90;56.40;;;;;;4989420;28;20027;-85
2022/09/03 10:14:26;;;;;;;3.13;1.00;;;24.00;56.40;;;;;;4989945;28;20472;-83
2022/09/03 10:17:03;;;;;;;1.20;0.82;;;24.10;56.40;;;;;;5013016;28;20026;-86
2022/09/03 10:20:30;;;;;;;1.60;1.00;;;24.20;56.10;;;;;;4984791;28;20029;-87
2022/09/03 10:23:02;;;;;;;1.38;1.00;;;24.30;56.20;;;;;;4946729;28;20040;-89
2022/09/03 10:25:54;;;;;;;1.27;0.82;;;24.40;55.60;;;;;;5011440;28;20032;-86
2022/09/03 10:28:30;;;;;;;2.15;0.80;;;24.50;55.40;;;;;;4998416;28;20543;-87
2022/09/03 10:31:01;;;;;;;0.85;0.70;;;24.50;55.50;;;;;;5009867;28;20026;-87
2022/09/03 10:33:38;;;;;;;1.95;1.00;;;24.60;55.40;;;;;;4994852;28;20122;-85
2022/09/03 10:36:27;;;;;;;2.35;1.02;;;24.70;55.00;;;;;;5011332;28;20019;-90
2022/09/03 10:39:04;;;;;;;4.65;1.45;;;24.80;54.20;;;;;;5000973;28;20022;-88
2022/09/03 10:42:05;;;;;;;2.67;1.17;;;24.90;53.80;;;;;;5010987;28;20025;-87
2022/09/03 10:45:02;;;;;;;2.47;0.88;;;25.00;52.80;;;;;;4965390;28;20039;-87
2022/09/03 10:48:11;;;;;;;2.25;1.17;;;25.00;52.50;;;;;;4991564;28;20117;-87
2022/09/03 10:50:52;;;;;;;1.35;0.95;;;25.10;52.80;;;;;;4967538;28;20066;-88
2022/09/03 10:53:37;;;;;;;;;;;25.20;52.80;;;;;;4994427;28;20566;-87
2022/09/03 10:59:44;;;;;;;2.92;1.20;;;25.40;53.00;;;;;;4974321;28;20547;-88
2022/09/03 11:02:54;;;;;;;1.13;1.00;;;25.50;52.90;;;;;;4991739;28;20027;-88
2022/09/03 11:05:30;;;;;;;2.72;1.17;;;25.60;52.30;;;;;;4976071;28;20139;-90
2022/09/03 11:08:15;;;;;;;2.17;0.85;;;25.70;51.50;;;;;;4992360;28;20023;-90
2022/09/03 11:10:45;;;;;;;2.05;1.00;;;25.70;51.40;;;;;;4992155;28;20027;-90
2022/09/03 11:13:35;;;;;;;2.30;0.85;;;25.80;51.30;;;;;;4991908;28;20062;-89
2022/09/03 11:16:10;;;;;;;1.20;1.00;;;25.90;51.40;;;;;;4991479;28;20039;-86
2022/09/03 11:19:04;;;;;;;2.17;1.27;;;26.00;51.50;;;;;;4980530;28;20106;-87
2022/09/03 11:21:40;;;;;;;2.90;1.20;;;26.10;51.40;;;;;;4983998;28;20055;-91
2022/09/03 11:24:07;;;;;;;3.55;1.13;;;26.20;51.40;;;;;;4991862;28;20085;-89
2022/09/03 11:26:35;;;;;;;2.97;1.20;;;26.30;51.00;;;;;;4991197;28;20023;-87
2022/09/03 11:29:08;;;;;;;2.55;1.08;;;26.40;50.60;;;;;;4974903;28;20023;-89
2022/09/03 11:31:58;;;;;;;1.38;0.90;;;26.50;50.70;;;;;;4974987;28;20027;-89
2022/09/03 11:34:25;;;;;;;1.85;1.00;;;26.60;50.90;;;;;;4995231;28;20030;-91
2022/09/03 11:36:51;;;;;;;2.55;1.20;;;26.60;50.80;;;;;;4991755;28;20078;-89
2022/09/03 11:39:35;;;;;;;4.63;1.27;;;26.80;50.80;;;;;;4978502;28;20031;-88
2022/09/03 11:42:27;;;;;;;5.47;1.50;;;26.80;50.50;;;;;;4994789;28;20022;-90
2022/09/03 11:45:11;;;;;;;8.23;1.73;;;26.90;50.00;;;;;;4995050;28;20121;-89
2022/09/03 11:47:42;;;;;;;7.88;1.40;;;27.00;49.60;;;;;;4995922;28;20054;-90
2022/09/03 11:50:20;;;;;;;53.38;6.00;;;27.00;49.60;;;;;;4962346;28;20027;-89
2022/09/03 11:52:52;;;;;;;4.78;1.23;;;27.10;49.50;;;;;;4992242;28;20503;-90
2022/09/03 11:55:32;;;;;;;2.70;1.27;;;27.20;49.00;;;;;;4995234;28;20043;-89
2022/09/03 11:58:09;;;;;;;6.20;1.40;;;27.30;49.30;;;;;;4993568;28;20027;-90
2022/09/03 12:00:37;;;;;;;4.50;1.42;;;27.30;49.20;;;;;;4974676;28;20023;-90
2022/09/03 12:03:03;;;;;;;3.30;1.08;;;27.40;49.10;;;;;;4958922;28;20026;-91
2022/09/03 12:05:40;;;;;;;2.10;0.95;;;27.50;49.10;;;;;;4956672;28;20039;-90
2022/09/03 12:08:21;;;;;;;2.13;1.20;;;27.60;48.90;;;;;;4990461;28;20027;-90
2022/09/03 12:11:19;;;;;;;8.30;1.42;;;27.70;48.80;;;;;;4991521;28;20495;-90
2022/09/03 12:14:02;;;;;;;3.90;1.15;;;27.70;48.60;;;;;;4991600;28;20031;-90
2022/09/03 12:16:51;;;;;;;4.50;1.00;;;27.80;48.80;;;;;;4991936;28;20058;-90
2022/09/03 12:19:26;;;;;;;5.28;1.13;;;27.90;48.70;;;;;;4969879;28;20509;-91
2022/09/03 12:21:52;;;;;;;2.70;0.98;;;28.00;48.40;;;;;;4991400;28;20049;-89
2022/09/03 12:24:19;;;;;;;3.33;1.17;;;28.10;48.30;;;;;;4978761;28;20026;-90
2022/09/03 12:26:44;;;;;;;1.40;1.08;;;28.10;47.90;;;;;;4979526;28;20069;-90
2022/09/03 12:29:30;;;;;;;1.98;1.10;;;28.20;47.90;;;;;;4978844;28;20023;-90
2022/09/03 12:32:10;;;;;;;2.38;1.27;;;28.20;47.90;;;;;;4991718;28;20034;-90
2022/09/03 12:34:36;;;;;;;2.20;1.30;;;28.30;47.90;;;;;;4978418;28;20057;-91
2022/09/03 12:37:01;;;;;;;2.50;1.80;;;28.40;47.80;;;;;;4975957;28;20023;-91
2022/09/03 12:39:29;;;;;;;7.53;1.50;;;28.40;47.50;;;;;;4972202;28;20381;-87
2022/09/03 12:41:55;;;;;;;2.15;1.20;;;28.50;47.10;;;;;;4975053;28;20015;-91
2022/09/03 12:44:34;;;;;;;1.70;1.40;;;28.50;47.40;;;;;;4977665;28;20053;-90
2022/09/03 12:47:18;;;;;;;3.03;1.33;;;28.60;47.40;;;;;;4978915;28;20116;-91
2022/09/03 12:49:46;;;;;;;2.83;1.25;;;28.60;47.40;;;;;;4979274;28;20019;-90
2022/09/03 12:52:29;;;;;;;4.13;1.42;;;28.70;47.50;;;;;;4992592;28;20023;-91
2022/09/03 12:55:20;;;;;;;1.88;1.20;;;28.80;47.50;;;;;;4994237;28;20175;-89
2022/09/03 12:57:54;;;;;;;3.47;1.33;;;28.80;47.30;;;;;;4981002;28;20019;-90
2022/09/03 13:00:21;;;;;;;5.20;1.30;;;28.80;47.10;;;;;;4994111;28;20086;-90
2022/09/03 13:06:48;;;;;;;5.70;1.58;;;29.00;46.50;;;;;;4921099;28;20047;-89
2022/09/03 13:09:18;;;;;;;4.60;1.98;;;29.00;46.90;;;;;;4971090;28;20023;-89
2022/09/03 13:11:44;;;;;;;8.40;1.70;;;29.00;46.70;;;;;;4978046;28;20054;-90
2022/09/03 13:14:13;;;;;;;4.53;2.00;;;29.00;46.70;;;;;;4977674;28;20023;-89
2022/09/03 13:16:51;;;;;;;3.22;1.40;;;29.00;46.60;;;;;;4977581;28;20370;-89
2022/09/03 13:19:34;;;;;;;6.20;1.58;;;29.10;46.80;;;;;;4993436;28;20524;-89
2022/09/03 13:22:18;;;;;;;2.65;1.80;;;29.10;46.70;;;;;;4993238;28;20027;-90
2022/09/03 13:25:15;;;;;;;5.72;1.80;;;29.20;47.00;;;;;;4977489;28;20029;-94
2022/09/03 13:28:09;;;;;;;4.30;1.60;;;29.20;46.20;;;;;;4954504;28;20090;-92
2022/09/03 13:30:54;;;;;;;4.00;1.80;;;29.30;46.20;;;;;;4978066;28;20031;-92
2022/09/03 13:33:34;;;;;;;2.80;1.70;;;29.30;46.40;;;;;;4992919;28;20118;-93
2022/09/03 13:36:09;;;;;;;;;;;29.40;46.60;;;;;;4986526;28;20033;-91
2022/09/03 13:39:02;;;;;;;2.38;1.60;;;29.40;46.90;;;;;;4980846;28;19906;-94
2022/09/03 13:41:28;;;;;;;3.45;1.40;;;29.50;46.50;;;;;;4993852;28;20050;-93